createdAt,value
2022-08-30T00:01:39.703Z,102390.47
2022-08-30T00:06:41.588Z,102381.09
2022-08-30T00:11:44.350Z,102377.28
2022-08-30T00:16:50.902Z,102372.63
2022-08-30T00:22:01.607Z,102376.72
2022-08-30T00:27:09.015Z,102368.38
2022-08-30T00:32:13.913Z,102372.66
2022-08-30T00:37:19.015Z,102377.81
2022-08-30T00:42:29.638Z,102374.84
2022-08-30T00:47:35.257Z,102393.78
2022-08-30T00:52:41.618Z,102388.09
2022-08-30T00:57:44.901Z,102392.41
2022-08-30T01:02:53.757Z,102397.50
2022-08-30T01:08:15.637Z,102393.72
2022-08-30T01:13:22.699Z,102405.25
2022-08-30T01:18:25.648Z,102404.16
2022-08-30T01:23:31.255Z,102406.72
2022-08-30T01:28:34.040Z,102404.78
2022-08-30T01:33:38.369Z,102393.88
2022-08-30T01:38:56.854Z,102389.50
2022-08-30T01:44:03.399Z,102399.81
2022-08-30T01:49:10.209Z,102394.16
2022-08-30T01:54:12.762Z,102412.13
2022-08-30T01:59:23.813Z,102403.09
2022-08-30T02:04:27.855Z,102403.00
2022-08-30T02:09:29.944Z,102407.63
2022-08-30T02:14:40.764Z,102396.50
2022-08-30T02:19:45.373Z,102395.19
2022-08-30T02:24:51.342Z,102394.91
2022-08-30T02:29:53.644Z,102398.16
2022-08-30T02:34:57.590Z,102396.34
2022-08-30T02:39:59.336Z,102404.84
2022-08-30T02:45:08.215Z,102399.81
2022-08-30T02:50:10.446Z,102394.75
2022-08-30T02:55:14.391Z,102401.72
2022-08-30T03:00:19.010Z,102394.31
2022-08-30T03:05:23.496Z,102389.78
2022-08-30T03:10:30.357Z,102394.53
2022-08-30T03:15:32.065Z,102398.25
2022-08-30T03:20:40.630Z,102390.88
2022-08-30T03:25:47.334Z,102390.22
2022-08-30T03:30:56.660Z,102391.25
2022-08-30T03:36:05.948Z,102382.84
2022-08-30T03:41:15.009Z,102405.06
2022-08-30T03:46:16.974Z,102401.38
2022-08-30T03:51:19.123Z,102404.53
2022-08-30T03:56:24.526Z,102394.25
2022-08-30T04:01:26.307Z,102400.47
2022-08-30T04:06:33.922Z,102402.34
2022-08-30T04:11:35.810Z,102408.22
2022-08-30T04:16:40.260Z,102420.84
2022-08-30T04:21:43.338Z,102409.72
2022-08-30T04:26:47.328Z,102402.94
2022-08-30T04:31:51.295Z,102409.00
2022-08-30T04:36:55.429Z,102404.44
2022-08-30T04:41:57.592Z,102415.13
2022-08-30T04:47:02.438Z,102405.53
2022-08-30T04:52:06.393Z,102418.16
2022-08-30T04:57:08.260Z,102417.13
2022-08-30T05:02:14.886Z,102419.31
2022-08-30T05:07:20.587Z,102422.41
2022-08-30T05:12:24.176Z,102418.66
2022-08-30T05:17:30.694Z,102420.00
2022-08-30T05:22:34.801Z,102424.84
2022-08-30T05:27:37.600Z,102425.31
2022-08-30T05:32:44.980Z,102432.38
2022-08-30T05:37:52.701Z,102437.44
2022-08-30T05:42:54.454Z,102434.53
2022-08-30T05:47:56.454Z,102426.09
2022-08-30T05:53:02.577Z,102437.03
2022-08-30T05:58:04.307Z,102433.97
2022-08-30T06:03:06.149Z,102447.66
2022-08-30T06:08:14.122Z,102454.00
2022-08-30T06:13:18.357Z,102451.94
2022-08-30T06:18:27.921Z,102452.03
2022-08-30T06:23:32.850Z,102446.59
2022-08-30T06:28:40.568Z,102455.25
2022-08-30T06:33:51.532Z,102459.19
2022-08-30T06:38:55.710Z,102458.97
2022-08-30T06:44:01.926Z,102458.31
2022-08-30T06:49:05.549Z,102461.66
2022-08-30T06:54:12.056Z,102459.44
2022-08-30T06:59:13.993Z,102457.56
2022-08-30T07:04:19.929Z,102453.47
2022-08-30T07:09:27.233Z,102453.22
2022-08-30T07:14:38.709Z,102450.59
2022-08-30T07:19:45.705Z,102456.44
2022-08-30T07:24:50.641Z,102468.75
2022-08-30T07:29:53.338Z,102463.56
2022-08-30T07:34:57.760Z,102461.47
2022-08-30T07:40:02.577Z,102462.06
2022-08-30T07:45:10.288Z,102466.34
2022-08-30T07:50:14.933Z,102460.75
2022-08-30T07:55:21.545Z,102471.69
2022-08-30T08:00:26.773Z,102472.38
2022-08-30T08:05:33.616Z,102479.66
2022-08-30T08:10:38.124Z,102477.53
2022-08-30T08:15:42.630Z,102482.69
2022-08-30T08:20:48.168Z,102474.84
2022-08-30T08:25:54.949Z,102471.88
2022-08-30T08:31:03.644Z,102479.19
2022-08-30T08:36:10.313Z,102481.00
2022-08-30T08:41:17.673Z,102480.38
2022-08-30T08:46:30.987Z,102481.91
2022-08-30T08:51:58.285Z,102482.59
2022-08-30T08:57:01.794Z,102483.72
2022-08-30T09:02:24.201Z,102485.69
2022-08-30T09:07:37.422Z,102482.59
2022-08-30T09:12:41.787Z,102483.44
2022-08-30T09:17:54.127Z,102487.16
2022-08-30T09:22:56.112Z,102480.19
2022-08-30T09:28:16.395Z,102478.28
2022-08-30T09:33:20.705Z,102482.69
2022-08-30T09:38:33.476Z,102493.13
2022-08-30T09:43:37.533Z,102491.88
2022-08-30T09:48:45.605Z,102494.41
2022-08-30T09:54:17.025Z,102484.41
2022-08-30T09:59:39.639Z,102493.22
2022-08-30T10:04:59.707Z,102488.44
2022-08-30T10:10:14.023Z,102489.72
2022-08-30T10:15:33.990Z,102483.25
2022-08-30T10:20:58.658Z,102474.47
2022-08-30T10:26:08.022Z,102469.00
2022-08-30T10:31:50.553Z,102466.50
2022-08-30T10:36:59.866Z,102465.88
2022-08-30T10:42:31.084Z,102456.81
2022-08-30T10:47:41.618Z,102455.44
2022-08-30T10:52:56.454Z,102462.81
2022-08-30T10:58:05.882Z,102458.25
2022-08-30T11:03:29.428Z,102453.47
2022-08-30T11:08:49.504Z,102463.75
2022-08-30T11:13:57.234Z,102453.44
2022-08-30T11:19:04.421Z,102454.75
2022-08-30T11:24:22.612Z,102454.84
2022-08-30T11:29:27.613Z,102461.88
2022-08-30T11:34:46.844Z,102460.66
2022-08-30T11:39:53.631Z,102445.91
2022-08-30T11:45:28.179Z,102449.81
2022-08-30T11:50:33.487Z,102448.97
2022-08-30T11:56:04.408Z,102441.97
2022-08-30T12:01:38.626Z,102433.16
2022-08-30T12:06:48.427Z,102426.88
2022-08-30T12:12:10.467Z,102437.91
2022-08-30T12:17:39.893Z,102424.88
2022-08-30T12:22:45.809Z,102415.00
2022-08-30T12:27:49.709Z,102419.66
2022-08-30T12:32:55.092Z,102424.50
2022-08-30T12:38:05.983Z,102419.03
2022-08-30T12:43:24.730Z,102432.34
2022-08-30T12:48:29.798Z,102423.41
2022-08-30T12:53:51.372Z,102426.03
2022-08-30T12:58:56.036Z,102424.25
2022-08-30T13:04:23.209Z,102419.00
2022-08-30T13:09:40.695Z,102406.78
2022-08-30T13:14:46.954Z,102405.66
2022-08-30T13:20:24.039Z,102397.28
2022-08-30T13:25:26.379Z,102404.22
2022-08-30T13:30:36.634Z,102398.75
2022-08-30T13:35:42.585Z,102400.13
2022-08-30T13:40:48.664Z,102387.69
2022-08-30T13:45:52.765Z,102382.94
2022-08-30T13:50:59.332Z,102384.88
2022-08-30T13:56:02.164Z,102387.91
2022-08-30T14:01:06.890Z,102388.66
2022-08-30T14:06:29.737Z,102386.16
2022-08-30T14:11:30.549Z,102393.63
2022-08-30T14:16:41.827Z,102385.03
2022-08-30T14:21:48.854Z,102383.69
2022-08-30T14:27:01.323Z,102390.34
2022-08-30T14:32:03.670Z,102387.38
2022-08-30T14:37:11.441Z,102383.41
2022-08-30T14:42:18.933Z,102368.72
2022-08-30T14:47:28.267Z,102386.88
2022-08-30T14:52:34.376Z,102380.38
2022-08-30T14:57:38.326Z,102384.91
2022-08-30T15:02:40.739Z,102381.13
2022-08-30T15:07:44.712Z,102380.63
2022-08-30T15:12:50.901Z,102377.41
2022-08-30T15:17:59.231Z,102369.13
2022-08-30T15:23:01.129Z,102370.19
2022-08-30T15:28:07.382Z,102375.22
2022-08-30T15:33:10.712Z,102364.38
2022-08-30T15:38:17.876Z,102364.06
2022-08-30T15:43:25.133Z,102363.72
2022-08-30T15:48:27.221Z,102361.66
2022-08-30T15:53:33.346Z,102367.00
2022-08-30T15:58:38.705Z,102363.53
2022-08-30T16:03:41.600Z,102362.00
2022-08-30T16:08:44.184Z,102368.75
2022-08-30T16:13:51.497Z,102365.16
2022-08-30T16:18:55.110Z,102353.13
2022-08-30T16:24:03.890Z,102347.84
2022-08-30T16:29:17.603Z,102352.16
2022-08-30T16:34:22.850Z,102345.41
2022-08-30T16:39:30.400Z,102354.19
2022-08-30T16:44:32.578Z,102356.03
2022-08-30T16:49:34.346Z,102354.78
2022-08-30T16:54:36.063Z,102348.00
2022-08-30T16:59:40.608Z,102362.41
2022-08-30T17:04:44.874Z,102348.53
2022-08-30T17:09:51.233Z,102345.53
2022-08-30T17:14:52.985Z,102352.38
2022-08-30T17:19:57.144Z,102357.94
2022-08-30T17:25:01.120Z,102354.81
2022-08-30T17:30:09.615Z,102359.38
2022-08-30T17:35:11.665Z,102362.38
2022-08-30T17:40:15.164Z,102368.50
2022-08-30T17:45:19.840Z,102367.66
2022-08-30T17:50:24.649Z,102371.63
2022-08-30T17:55:30.778Z,102389.56
2022-08-30T18:00:35.139Z,102387.81
2022-08-30T18:05:46.880Z,102384.81
2022-08-30T18:10:53.621Z,102384.59
2022-08-30T18:15:55.692Z,102398.44
2022-08-30T18:20:59.935Z,102405.34
2022-08-30T18:26:07.102Z,102413.91
2022-08-30T18:31:19.119Z,102413.91
2022-08-30T18:36:23.870Z,102430.56
2022-08-30T18:41:28.320Z,102432.31
2022-08-30T18:46:31.271Z,102430.66
2022-08-30T18:51:33.015Z,102439.06
2022-08-30T18:56:39.113Z,102444.34
2022-08-30T19:01:41.313Z,102443.25
2022-08-30T19:06:48.388Z,102455.63
2022-08-30T19:11:53.356Z,102457.13
2022-08-30T19:17:02.071Z,102456.69
2022-08-30T19:22:06.616Z,102455.88
2022-08-30T19:27:08.857Z,102450.44
2022-08-30T19:32:10.679Z,102455.25
2022-08-30T19:37:18.463Z,102435.59
2022-08-30T19:42:26.400Z,102454.59
2022-08-30T19:47:28.545Z,102466.69
2022-08-30T19:52:32.743Z,102474.63
2022-08-30T19:57:39.024Z,102472.75
2022-08-30T20:02:43.091Z,102474.56
2022-08-30T20:07:51.128Z,102474.94
2022-08-30T20:12:55.603Z,102477.44
2022-08-30T20:18:05.878Z,102485.34
2022-08-30T20:23:12.384Z,102486.97
2022-08-30T20:28:18.512Z,102487.97
2022-08-30T20:33:21.896Z,102488.75
2022-08-30T20:38:25.977Z,102497.72
2022-08-30T20:43:29.670Z,102499.19
2022-08-30T20:48:34.683Z,102507.03
2022-08-30T20:53:38.888Z,102507.09
2022-08-30T20:58:42.178Z,102515.78
2022-08-30T21:03:50.075Z,102520.50
2022-08-30T21:08:54.563Z,102510.63
2022-08-30T21:13:56.293Z,102512.47
2022-08-30T21:19:01.262Z,102521.13
2022-08-30T21:24:10.408Z,102513.31
2022-08-30T21:29:15.188Z,102521.59
2022-08-30T21:34:19.985Z,102537.38
2022-08-30T21:39:27.363Z,102531.91
2022-08-30T21:44:29.061Z,102540.72
2022-08-30T21:49:33.538Z,102541.28
2022-08-30T21:54:35.837Z,102551.19
2022-08-30T21:59:40.160Z,102545.69
2022-08-30T22:04:44.143Z,102551.38
2022-08-30T22:09:50.883Z,102542.53
2022-08-30T22:14:52.653Z,102554.31
2022-08-30T22:19:54.441Z,102555.41
2022-08-30T22:24:58.464Z,102560.28
2022-08-30T22:30:01.865Z,102571.03
2022-08-30T22:35:07.897Z,102579.03
2022-08-30T22:40:12.344Z,102575.38
2022-08-30T22:45:18.626Z,102582.56
2022-08-30T22:50:22.101Z,102572.47
2022-08-30T22:55:27.370Z,102585.06
2022-08-30T23:00:31.520Z,102582.22
2022-08-30T23:05:36.069Z,102569.59
2022-08-30T23:10:40.026Z,102574.88
2022-08-30T23:15:41.962Z,102574.44
2022-08-30T23:20:45.222Z,102576.81
2022-08-30T23:26:05.785Z,102580.06
2022-08-30T23:31:31.778Z,102585.84
2022-08-30T23:36:54.691Z,102583.69
2022-08-30T23:42:17.742Z,102578.34
2022-08-30T23:47:43.690Z,102577.66
2022-08-30T23:53:03.826Z,102573.81
2022-08-30T23:58:24.628Z,102566.63
